sensor_id;sensor_type;location;lat;lon;timestamp;temperature;humidity
15343;DHT22;7771;48.478;8.936;2022-12-28T00:01:33;2.10;99.90
15343;DHT22;7771;48.478;8.936;2022-12-28T00:04:01;2.10;99.90
15343;DHT22;7771;48.478;8.936;2022-12-28T00:06:27;2.10;99.90
15343;DHT22;7771;48.478;8.936;2022-12-28T00:08:55;2.10;99.90
15343;DHT22;7771;48.478;8.936;2022-12-28T00:11:22;2.10;99.90
15343;DHT22;7771;48.478;8.936;2022-12-28T00:13:47;2.10;99.90
15343;DHT22;7771;48.478;8.936;2022-12-28T00:16:24;2.00;99.90
15343;DHT22;7771;48.478;8.936;2022-12-28T00:18:50;2.10;99.90
15343;DHT22;7771;48.478;8.936;2022-12-28T00:21:16;2.10;99.90
15343;DHT22;7771;48.478;8.936;2022-12-28T00:23:43;2.00;99.90
15343;DHT22;7771;48.478;8.936;2022-12-28T00:26:11;2.00;99.90
15343;DHT22;7771;48.478;8.936;2022-12-28T00:28:37;2.00;99.90
15343;DHT22;7771;48.478;8.936;2022-12-28T00:31:04;1.90;99.90
15343;DHT22;7771;48.478;8.936;2022-12-28T00:33:31;1.90;99.90
15343;DHT22;7771;48.478;8.936;2022-12-28T00:35:58;1.90;99.90
15343;DHT22;7771;48.478;8.936;2022-12-28T00:38:24;2.00;99.90
15343;DHT22;7771;48.478;8.936;2022-12-28T00:40:50;1.90;99.90
15343;DHT22;7771;48.478;8.936;2022-12-28T00:43:17;2.00;99.90
15343;DHT22;7771;48.478;8.936;2022-12-28T00:45:46;2.00;99.90
15343;DHT22;7771;48.478;8.936;2022-12-28T00:48:14;2.00;99.90
15343;DHT22;7771;48.478;8.936;2022-12-28T00:50:40;2.00;99.90
15343;DHT22;7771;48.478;8.936;2022-12-28T00:53:06;2.00;99.90
15343;DHT22;7771;48.478;8.936;2022-12-28T00:55:33;2.00;99.90
15343;DHT22;7771;48.478;8.936;2022-12-28T00:58:00;2.00;99.90
15343;DHT22;7771;48.478;8.936;2022-12-28T01:00:27;1.90;99.90
15343;DHT22;7771;48.478;8.936;2022-12-28T01:02:55;2.00;99.90
15343;DHT22;7771;48.478;8.936;2022-12-28T01:05:22;2.00;99.90
15343;DHT22;7771;48.478;8.936;2022-12-28T01:07:49;2.00;99.90
15343;DHT22;7771;48.478;8.936;2022-12-28T01:10:16;2.00;99.90
15343;DHT22;7771;48.478;8.936;2022-12-28T01:12:43;2.00;99.90
15343;DHT22;7771;48.478;8.936;2022-12-28T01:15:10;2.00;99.90
15343;DHT22;7771;48.478;8.936;2022-12-28T01:17:37;2.10;99.90
15343;DHT22;7771;48.478;8.936;2022-12-28T01:20:05;2.10;99.90
15343;DHT22;7771;48.478;8.936;2022-12-28T01:22:32;2.10;99.90
15343;DHT22;7771;48.478;8.936;2022-12-28T01:24:58;2.10;99.90
15343;DHT22;7771;48.478;8.936;2022-12-28T01:27:25;2.10;99.90
15343;DHT22;7771;48.478;8.936;2022-12-28T01:29:52;2.10;99.90
15343;DHT22;7771;48.478;8.936;2022-12-28T01:32:19;2.20;99.90
15343;DHT22;7771;48.478;8.936;2022-12-28T01:34:46;2.20;99.90
15343;DHT22;7771;48.478;8.936;2022-12-28T01:37:13;2.20;99.90
15343;DHT22;7771;48.478;8.936;2022-12-28T01:39:40;2.20;99.90
15343;DHT22;7771;48.478;8.936;2022-12-28T01:42:11;2.10;99.90
15343;DHT22;7771;48.478;8.936;2022-12-28T01:44:36;2.20;99.90
15343;DHT22;7771;48.478;8.936;2022-12-28T01:47:01;2.20;99.90
15343;DHT22;7771;48.478;8.936;2022-12-28T01:49:30;2.20;99.90
15343;DHT22;7771;48.478;8.936;2022-12-28T01:52:13;2.20;99.90
15343;DHT22;7771;48.478;8.936;2022-12-28T01:54:46;2.20;99.90
15343;DHT22;7771;48.478;8.936;2022-12-28T01:57:12;2.20;99.90
15343;DHT22;7771;48.478;8.936;2022-12-28T01:59:40;2.30;99.90
15343;DHT22;7771;48.478;8.936;2022-12-28T02:02:05;2.30;99.90
15343;DHT22;7771;48.478;8.936;2022-12-28T02:04:33;2.30;99.90
15343;DHT22;7771;48.478;8.936;2022-12-28T02:07:00;2.30;99.90
15343;DHT22;7771;48.478;8.936;2022-12-28T02:09:29;2.40;99.90
15343;DHT22;7771;48.478;8.936;2022-12-28T02:11:55;2.40;99.90
15343;DHT22;7771;48.478;8.936;2022-12-28T02:14:22;2.40;99.90
15343;DHT22;7771;48.478;8.936;2022-12-28T02:16:49;2.40;99.90
15343;DHT22;7771;48.478;8.936;2022-12-28T02:19:17;2.40;99.90
15343;DHT22;7771;48.478;8.936;2022-12-28T02:21:55;2.40;99.90
15343;DHT22;7771;48.478;8.936;2022-12-28T02:24:28;2.40;99.90
15343;DHT22;7771;48.478;8.936;2022-12-28T02:27:15;2.40;99.90
15343;DHT22;7771;48.478;8.936;2022-12-28T02:32:50;2.40;99.90
15343;DHT22;7771;48.478;8.936;2022-12-28T02:35:18;2.40;99.90
15343;DHT22;7771;48.478;8.936;2022-12-28T02:37:45;2.40;99.90
15343;DHT22;7771;48.478;8.936;2022-12-28T02:40:14;2.50;99.90
15343;DHT22;7771;48.478;8.936;2022-12-28T02:42:39;2.50;99.90
15343;DHT22;7771;48.478;8.936;2022-12-28T02:45:08;2.50;99.90
15343;DHT22;7771;48.478;8.936;2022-12-28T02:47:41;2.50;99.90
15343;DHT22;7771;48.478;8.936;2022-12-28T02:50:12;2.50;99.90
15343;DHT22;7771;48.478;8.936;2022-12-28T02:52:51;2.60;99.90
15343;DHT22;7771;48.478;8.936;2022-12-28T02:55:17;2.50;99.90
15343;DHT22;7771;48.478;8.936;2022-12-28T02:57:54;2.60;99.90
15343;DHT22;7771;48.478;8.936;2022-12-28T03:00:18;2.60;99.90
15343;DHT22;7771;48.478;8.936;2022-12-28T03:02:52;2.70;99.90
15343;DHT22;7771;48.478;8.936;2022-12-28T03:05:20;2.60;99.90
15343;DHT22;7771;48.478;8.936;2022-12-28T03:07:49;2.60;99.90
15343;DHT22;7771;48.478;8.936;2022-12-28T03:10:25;2.60;99.90
15343;DHT22;7771;48.478;8.936;2022-12-28T03:12:57;2.60;99.90
15343;DHT22;7771;48.478;8.936;2022-12-28T03:15:26;2.60;99.90
15343;DHT22;7771;48.478;8.936;2022-12-28T03:17:57;2.70;99.90
15343;DHT22;7771;48.478;8.936;2022-12-28T03:20:29;2.70;99.90
15343;DHT22;7771;48.478;8.936;2022-12-28T03:23:01;2.70;99.90
15343;DHT22;7771;48.478;8.936;2022-12-28T03:25:36;2.70;99.90
15343;DHT22;7771;48.478;8.936;2022-12-28T03:28:09;2.70;99.90
15343;DHT22;7771;48.478;8.936;2022-12-28T03:30:42;2.70;99.90
15343;DHT22;7771;48.478;8.936;2022-12-28T03:33:15;2.80;99.90
15343;DHT22;7771;48.478;8.936;2022-12-28T03:35:45;2.80;99.90
15343;DHT22;7771;48.478;8.936;2022-12-28T03:38:10;2.80;99.90
15343;DHT22;7771;48.478;8.936;2022-12-28T03:40:41;2.80;99.90
15343;DHT22;7771;48.478;8.936;2022-12-28T03:43:09;2.80;99.90
15343;DHT22;7771;48.478;8.936;2022-12-28T03:45:56;2.80;99.90
15343;DHT22;7771;48.478;8.936;2022-12-28T03:48:22;2.90;99.90
15343;DHT22;7771;48.478;8.936;2022-12-28T03:50:49;2.90;99.90
15343;DHT22;7771;48.478;8.936;2022-12-28T03:53:16;2.90;99.90
15343;DHT22;7771;48.478;8.936;2022-12-28T03:55:44;2.90;99.90
15343;DHT22;7771;48.478;8.936;2022-12-28T03:58:12;2.90;99.90
15343;DHT22;7771;48.478;8.936;2022-12-28T04:00:39;2.90;99.90
15343;DHT22;7771;48.478;8.936;2022-12-28T04:03:06;2.90;99.90
15343;DHT22;7771;48.478;8.936;2022-12-28T04:05:34;2.90;99.90
15343;DHT22;7771;48.478;8.936;2022-12-28T04:08:02;2.80;99.90
15343;DHT22;7771;48.478;8.936;2022-12-28T04:10:28;2.80;99.90
15343;DHT22;7771;48.478;8.936;2022-12-28T04:12:56;2.80;99.90
15343;DHT22;7771;48.478;8.936;2022-12-28T04:15:23;2.80;99.90
15343;DHT22;7771;48.478;8.936;2022-12-28T04:17:50;2.80;99.90
15343;DHT22;7771;48.478;8.936;2022-12-28T04:20:17;2.80;99.90
15343;DHT22;7771;48.478;8.936;2022-12-28T04:22:44;2.80;99.90
15343;DHT22;7771;48.478;8.936;2022-12-28T04:25:12;2.80;99.90
15343;DHT22;7771;48.478;8.936;2022-12-28T04:27:38;2.80;99.90
15343;DHT22;7771;48.478;8.936;2022-12-28T04:30:06;2.90;99.90
15343;DHT22;7771;48.478;8.936;2022-12-28T04:32:33;2.80;99.90
15343;DHT22;7771;48.478;8.936;2022-12-28T04:35:01;2.80;99.90
15343;DHT22;7771;48.478;8.936;2022-12-28T04:37:28;2.80;99.90
15343;DHT22;7771;48.478;8.936;2022-12-28T04:39:55;2.80;99.90
15343;DHT22;7771;48.478;8.936;2022-12-28T04:42:22;2.80;99.90
15343;DHT22;7771;48.478;8.936;2022-12-28T04:44:49;2.80;99.90
15343;DHT22;7771;48.478;8.936;2022-12-28T04:47:17;2.80;99.90
15343;DHT22;7771;48.478;8.936;2022-12-28T04:49:44;2.80;99.90
15343;DHT22;7771;48.478;8.936;2022-12-28T04:52:13;2.80;99.90
15343;DHT22;7771;48.478;8.936;2022-12-28T04:54:40;2.80;99.90
15343;DHT22;7771;48.478;8.936;2022-12-28T04:57:06;2.80;99.90
15343;DHT22;7771;48.478;8.936;2022-12-28T04:59:34;2.80;99.90
15343;DHT22;7771;48.478;8.936;2022-12-28T05:02:01;2.80;99.90
15343;DHT22;7771;48.478;8.936;2022-12-28T05:04:29;2.80;99.90
15343;DHT22;7771;48.478;8.936;2022-12-28T05:06:56;2.80;99.90
15343;DHT22;7771;48.478;8.936;2022-12-28T05:09:23;2.80;99.90
15343;DHT22;7771;48.478;8.936;2022-12-28T05:11:49;2.80;99.90
15343;DHT22;7771;48.478;8.936;2022-12-28T05:14:16;2.80;99.90
15343;DHT22;7771;48.478;8.936;2022-12-28T05:16:43;2.80;99.90
15343;DHT22;7771;48.478;8.936;2022-12-28T05:19:10;2.80;99.90
15343;DHT22;7771;48.478;8.936;2022-12-28T05:21:37;2.90;99.90
15343;DHT22;7771;48.478;8.936;2022-12-28T05:24:04;2.90;99.90
15343;DHT22;7771;48.478;8.936;2022-12-28T05:26:31;2.90;99.90
15343;DHT22;7771;48.478;8.936;2022-12-28T05:28:57;2.90;99.90
15343;DHT22;7771;48.478;8.936;2022-12-28T05:31:25;2.90;99.90
15343;DHT22;7771;48.478;8.936;2022-12-28T05:33:52;3.00;99.90
15343;DHT22;7771;48.478;8.936;2022-12-28T05:36:21;3.00;99.90
15343;DHT22;7771;48.478;8.936;2022-12-28T05:38:47;3.00;99.90
15343;DHT22;7771;48.478;8.936;2022-12-28T05:41:16;3.00;99.90
15343;DHT22;7771;48.478;8.936;2022-12-28T05:43:42;3.00;99.90
15343;DHT22;7771;48.478;8.936;2022-12-28T05:46:10;3.00;99.90
15343;DHT22;7771;48.478;8.936;2022-12-28T05:48:37;3.10;99.90
15343;DHT22;7771;48.478;8.936;2022-12-28T05:51:06;3.10;99.90
15343;DHT22;7771;48.478;8.936;2022-12-28T05:53:32;3.20;99.90
15343;DHT22;7771;48.478;8.936;2022-12-28T05:56:02;3.20;99.90
15343;DHT22;7771;48.478;8.936;2022-12-28T05:58:28;3.30;99.90
15343;DHT22;7771;48.478;8.936;2022-12-28T06:01:03;3.30;99.90
15343;DHT22;7771;48.478;8.936;2022-12-28T06:03:29;3.40;99.90
15343;DHT22;7771;48.478;8.936;2022-12-28T06:05:55;3.40;99.90
15343;DHT22;7771;48.478;8.936;2022-12-28T06:08:22;3.40;99.90
15343;DHT22;7771;48.478;8.936;2022-12-28T06:10:49;3.40;99.90
15343;DHT22;7771;48.478;8.936;2022-12-28T06:13:16;3.40;99.90
15343;DHT22;7771;48.478;8.936;2022-12-28T06:15:43;3.40;99.90
15343;DHT22;7771;48.478;8.936;2022-12-28T06:18:10;3.50;99.90
15343;DHT22;7771;48.478;8.936;2022-12-28T06:20:37;3.50;99.90
15343;DHT22;7771;48.478;8.936;2022-12-28T06:23:04;3.50;99.90
15343;DHT22;7771;48.478;8.936;2022-12-28T06:25:31;3.50;99.90
15343;DHT22;7771;48.478;8.936;2022-12-28T06:27:58;3.50;99.90
15343;DHT22;7771;48.478;8.936;2022-12-28T06:30:25;3.50;99.90
15343;DHT22;7771;48.478;8.936;2022-12-28T06:32:54;3.50;99.90
15343;DHT22;7771;48.478;8.936;2022-12-28T06:35:19;3.40;99.90
15343;DHT22;7771;48.478;8.936;2022-12-28T06:37:47;3.40;99.90
15343;DHT22;7771;48.478;8.936;2022-12-28T06:40:14;3.40;99.90
15343;DHT22;7771;48.478;8.936;2022-12-28T06:42:41;3.40;99.90
15343;DHT22;7771;48.478;8.936;2022-12-28T06:45:08;3.40;99.90
15343;DHT22;7771;48.478;8.936;2022-12-28T06:47:35;3.40;99.90
15343;DHT22;7771;48.478;8.936;2022-12-28T06:50:02;3.40;99.90
15343;DHT22;7771;48.478;8.936;2022-12-28T06:52:29;3.50;99.90
15343;DHT22;7771;48.478;8.936;2022-12-28T06:54:56;3.40;99.90
15343;DHT22;7771;48.478;8.936;2022-12-28T06:57:23;3.40;99.90
15343;DHT22;7771;48.478;8.936;2022-12-28T06:59:50;3.30;99.90
15343;DHT22;7771;48.478;8.936;2022-12-28T07:02:17;3.30;99.90
15343;DHT22;7771;48.478;8.936;2022-12-28T07:04:44;3.30;99.90
15343;DHT22;7771;48.478;8.936;2022-12-28T07:09:39;3.30;99.90
15343;DHT22;7771;48.478;8.936;2022-12-28T07:12:05;3.30;99.90
15343;DHT22;7771;48.478;8.936;2022-12-28T07:14:32;3.30;99.90
15343;DHT22;7771;48.478;8.936;2022-12-28T07:16:59;3.30;99.90
15343;DHT22;7771;48.478;8.936;2022-12-28T07:19:26;3.30;99.90
15343;DHT22;7771;48.478;8.936;2022-12-28T07:21:52;3.30;99.90
15343;DHT22;7771;48.478;8.936;2022-12-28T07:24:19;3.30;99.90
15343;DHT22;7771;48.478;8.936;2022-12-28T07:26:45;3.40;99.90
15343;DHT22;7771;48.478;8.936;2022-12-28T07:29:13;3.40;99.90
15343;DHT22;7771;48.478;8.936;2022-12-28T07:31:40;3.40;99.90
15343;DHT22;7771;48.478;8.936;2022-12-28T07:34:07;3.50;99.90
15343;DHT22;7771;48.478;8.936;2022-12-28T07:36:34;3.50;99.90
15343;DHT22;7771;48.478;8.936;2022-12-28T07:39:02;3.60;99.90
15343;DHT22;7771;48.478;8.936;2022-12-28T07:41:30;3.60;99.90
15343;DHT22;7771;48.478;8.936;2022-12-28T07:43:56;3.70;99.90
15343;DHT22;7771;48.478;8.936;2022-12-28T07:46:23;3.70;99.90
15343;DHT22;7771;48.478;8.936;2022-12-28T07:48:49;3.60;99.90
15343;DHT22;7771;48.478;8.936;2022-12-28T07:51:17;3.60;99.90
15343;DHT22;7771;48.478;8.936;2022-12-28T07:53:44;3.60;99.90
15343;DHT22;7771;48.478;8.936;2022-12-28T07:56:11;3.60;99.90
15343;DHT22;7771;48.478;8.936;2022-12-28T07:58:37;3.70;99.90
15343;DHT22;7771;48.478;8.936;2022-12-28T08:01:07;3.70;99.90
15343;DHT22;7771;48.478;8.936;2022-12-28T08:03:33;3.70;99.90
15343;DHT22;7771;48.478;8.936;2022-12-28T08:06:07;3.80;99.90
15343;DHT22;7771;48.478;8.936;2022-12-28T08:08:35;3.80;99.90
15343;DHT22;7771;48.478;8.936;2022-12-28T08:11:02;3.80;99.90
15343;DHT22;7771;48.478;8.936;2022-12-28T08:13:29;3.80;99.90
15343;DHT22;7771;48.478;8.936;2022-12-28T08:15:56;3.90;99.90
15343;DHT22;7771;48.478;8.936;2022-12-28T08:18:23;3.90;99.90
15343;DHT22;7771;48.478;8.936;2022-12-28T08:20:51;3.90;99.90
15343;DHT22;7771;48.478;8.936;2022-12-28T08:23:18;3.90;99.90
15343;DHT22;7771;48.478;8.936;2022-12-28T08:25:45;4.30;99.90
15343;DHT22;7771;48.478;8.936;2022-12-28T08:28:12;4.00;99.90
15343;DHT22;7771;48.478;8.936;2022-12-28T08:30:38;4.10;99.90
15343;DHT22;7771;48.478;8.936;2022-12-28T08:33:06;4.10;99.90
15343;DHT22;7771;48.478;8.936;2022-12-28T08:35:33;4.10;99.90
15343;DHT22;7771;48.478;8.936;2022-12-28T08:38:01;4.20;99.90
15343;DHT22;7771;48.478;8.936;2022-12-28T08:40:28;4.20;99.90
15343;DHT22;7771;48.478;8.936;2022-12-28T08:42:59;4.20;99.90
15343;DHT22;7771;48.478;8.936;2022-12-28T08:45:26;4.30;99.90
15343;DHT22;7771;48.478;8.936;2022-12-28T08:47:53;4.30;99.90
15343;DHT22;7771;48.478;8.936;2022-12-28T08:50:19;4.40;99.90
15343;DHT22;7771;48.478;8.936;2022-12-28T08:52:46;4.40;99.90
15343;DHT22;7771;48.478;8.936;2022-12-28T08:55:13;4.50;99.90
15343;DHT22;7771;48.478;8.936;2022-12-28T08:57:40;4.50;99.90
15343;DHT22;7771;48.478;8.936;2022-12-28T09:00:09;4.60;99.90
15343;DHT22;7771;48.478;8.936;2022-12-28T09:02:36;4.60;99.90
15343;DHT22;7771;48.478;8.936;2022-12-28T09:05:03;4.60;99.90
15343;DHT22;7771;48.478;8.936;2022-12-28T09:07:30;4.70;99.90
15343;DHT22;7771;48.478;8.936;2022-12-28T09:09:57;4.80;99.90
15343;DHT22;7771;48.478;8.936;2022-12-28T09:12:24;4.90;99.90
15343;DHT22;7771;48.478;8.936;2022-12-28T09:14:51;4.90;99.90
15343;DHT22;7771;48.478;8.936;2022-12-28T09:17:18;5.00;99.90
15343;DHT22;7771;48.478;8.936;2022-12-28T09:19:44;5.10;99.90
15343;DHT22;7771;48.478;8.936;2022-12-28T09:22:11;5.20;99.90
15343;DHT22;7771;48.478;8.936;2022-12-28T09:24:39;5.30;99.90
15343;DHT22;7771;48.478;8.936;2022-12-28T09:27:07;5.40;99.90
15343;DHT22;7771;48.478;8.936;2022-12-28T09:29:34;5.50;99.90
15343;DHT22;7771;48.478;8.936;2022-12-28T09:32:02;5.60;99.90
15343;DHT22;7771;48.478;8.936;2022-12-28T09:34:29;5.80;99.90
15343;DHT22;7771;48.478;8.936;2022-12-28T09:36:56;5.90;99.90
15343;DHT22;7771;48.478;8.936;2022-12-28T09:39:23;6.10;99.90
15343;DHT22;7771;48.478;8.936;2022-12-28T09:41:56;6.20;99.90
15343;DHT22;7771;48.478;8.936;2022-12-28T09:44:47;6.40;99.90
15343;DHT22;7771;48.478;8.936;2022-12-28T09:47:18;6.60;99.90
15343;DHT22;7771;48.478;8.936;2022-12-28T09:49:46;6.70;99.90
15343;DHT22;7771;48.478;8.936;2022-12-28T09:52:30;6.80;99.90
15343;DHT22;7771;48.478;8.936;2022-12-28T09:55:03;7.00;99.90
15343;DHT22;7771;48.478;8.936;2022-12-28T09:57:23;7.10;99.90
15343;DHT22;7771;48.478;8.936;2022-12-28T09:59:51;7.20;99.90
15343;DHT22;7771;48.478;8.936;2022-12-28T10:02:22;7.40;99.90
15343;DHT22;7771;48.478;8.936;2022-12-28T10:04:47;7.40;99.90
15343;DHT22;7771;48.478;8.936;2022-12-28T10:07:13;7.60;99.90
15343;DHT22;7771;48.478;8.936;2022-12-28T10:09:40;7.70;99.90
15343;DHT22;7771;48.478;8.936;2022-12-28T10:12:14;7.80;99.90
15343;DHT22;7771;48.478;8.936;2022-12-28T10:14:39;7.90;99.90
15343;DHT22;7771;48.478;8.936;2022-12-28T10:17:06;8.00;99.90
15343;DHT22;7771;48.478;8.936;2022-12-28T10:19:32;8.00;99.90
15343;DHT22;7771;48.478;8.936;2022-12-28T10:22:01;8.00;99.90
15343;DHT22;7771;48.478;8.936;2022-12-28T10:24:27;8.00;99.90
15343;DHT22;7771;48.478;8.936;2022-12-28T10:26:54;8.10;99.90
15343;DHT22;7771;48.478;8.936;2022-12-28T10:29:22;8.10;99.90
15343;DHT22;7771;48.478;8.936;2022-12-28T10:31:56;8.20;99.90
15343;DHT22;7771;48.478;8.936;2022-12-28T10:34:22;8.20;99.90
15343;DHT22;7771;48.478;8.936;2022-12-28T10:36:49;8.30;99.90
15343;DHT22;7771;48.478;8.936;2022-12-28T10:39:18;8.30;99.90
15343;DHT22;7771;48.478;8.936;2022-12-28T10:41:42;8.30;99.90
15343;DHT22;7771;48.478;8.936;2022-12-28T10:44:30;8.40;99.90
15343;DHT22;7771;48.478;8.936;2022-12-28T10:46:58;8.40;99.90
15343;DHT22;7771;48.478;8.936;2022-12-28T10:49:25;8.50;99.90
15343;DHT22;7771;48.478;8.936;2022-12-28T10:51:58;8.50;99.90
15343;DHT22;7771;48.478;8.936;2022-12-28T10:54:25;8.50;99.90
15343;DHT22;7771;48.478;8.936;2022-12-28T10:56:52;8.60;99.90
15343;DHT22;7771;48.478;8.936;2022-12-28T10:59:23;8.60;99.90
15343;DHT22;7771;48.478;8.936;2022-12-28T11:01:49;8.70;99.90
15343;DHT22;7771;48.478;8.936;2022-12-28T11:04:17;8.70;99.90
15343;DHT22;7771;48.478;8.936;2022-12-28T11:06:53;8.80;99.90
15343;DHT22;7771;48.478;8.936;2022-12-28T11:09:25;8.80;99.90
15343;DHT22;7771;48.478;8.936;2022-12-28T11:11:51;8.90;99.90
15343;DHT22;7771;48.478;8.936;2022-12-28T11:14:24;8.90;99.90
15343;DHT22;7771;48.478;8.936;2022-12-28T11:16:50;9.00;99.90
15343;DHT22;7771;48.478;8.936;2022-12-28T11:19:17;9.00;99.90
15343;DHT22;7771;48.478;8.936;2022-12-28T11:21:44;9.10;99.90
15343;DHT22;7771;48.478;8.936;2022-12-28T11:24:13;9.10;99.90
15343;DHT22;7771;48.478;8.936;2022-12-28T11:26:40;9.20;99.90
15343;DHT22;7771;48.478;8.936;2022-12-28T11:29:06;9.30;99.90
15343;DHT22;7771;48.478;8.936;2022-12-28T11:31:33;9.30;99.90
15343;DHT22;7771;48.478;8.936;2022-12-28T11:34:01;9.40;99.90
15343;DHT22;7771;48.478;8.936;2022-12-28T11:36:26;9.50;99.90
15343;DHT22;7771;48.478;8.936;2022-12-28T11:38:54;9.50;99.90
15343;DHT22;7771;48.478;8.936;2022-12-28T11:44:21;9.70;99.90
15343;DHT22;7771;48.478;8.936;2022-12-28T11:47:02;9.90;99.90
15343;DHT22;7771;48.478;8.936;2022-12-28T11:49:30;10.00;99.90
15343;DHT22;7771;48.478;8.936;2022-12-28T11:54:38;10.20;99.90
15343;DHT22;7771;48.478;8.936;2022-12-28T11:57:06;10.30;99.90
15343;DHT22;7771;48.478;8.936;2022-12-28T11:59:33;10.50;99.90
15343;DHT22;7771;48.478;8.936;2022-12-28T12:02:00;10.60;99.90
15343;DHT22;7771;48.478;8.936;2022-12-28T12:04:29;10.70;99.90
15343;DHT22;7771;48.478;8.936;2022-12-28T12:07:13;10.80;99.90
15343;DHT22;7771;48.478;8.936;2022-12-28T12:09:41;10.90;99.90
15343;DHT22;7771;48.478;8.936;2022-12-28T12:14:59;11.10;99.90
15343;DHT22;7771;48.478;8.936;2022-12-28T12:17:39;11.20;99.90
15343;DHT22;7771;48.478;8.936;2022-12-28T12:20:28;11.30;99.90
15343;DHT22;7771;48.478;8.936;2022-12-28T12:22:59;11.40;99.90
15343;DHT22;7771;48.478;8.936;2022-12-28T12:25:33;11.50;99.90
15343;DHT22;7771;48.478;8.936;2022-12-28T12:27:59;11.60;99.90
15343;DHT22;7771;48.478;8.936;2022-12-28T12:30:25;11.70;99.90
15343;DHT22;7771;48.478;8.936;2022-12-28T12:32:54;11.70;99.90
15343;DHT22;7771;48.478;8.936;2022-12-28T12:35:32;11.80;99.90
15343;DHT22;7771;48.478;8.936;2022-12-28T12:38:03;11.80;99.90
15343;DHT22;7771;48.478;8.936;2022-12-28T12:40:44;11.90;99.90
15343;DHT22;7771;48.478;8.936;2022-12-28T12:43:27;12.00;99.90
15343;DHT22;7771;48.478;8.936;2022-12-28T12:46:02;12.00;99.90
15343;DHT22;7771;48.478;8.936;2022-12-28T12:48:56;12.00;99.90
15343;DHT22;7771;48.478;8.936;2022-12-28T12:55:09;11.90;99.90
15343;DHT22;7771;48.478;8.936;2022-12-28T12:56:48;11.90;99.90
15343;DHT22;7771;48.478;8.936;2022-12-28T12:59:35;11.80;99.90
15343;DHT22;7771;48.478;8.936;2022-12-28T13:04:52;11.70;99.90
15343;DHT22;7771;48.478;8.936;2022-12-28T13:07:22;11.60;99.90
15343;DHT22;7771;48.478;8.936;2022-12-28T13:09:49;11.60;99.90
15343;DHT22;7771;48.478;8.936;2022-12-28T13:12:15;11.60;99.90
15343;DHT22;7771;48.478;8.936;2022-12-28T13:14:45;11.50;99.90
15343;DHT22;7771;48.478;8.936;2022-12-28T13:17:15;11.50;99.90
15343;DHT22;7771;48.478;8.936;2022-12-28T13:19:39;11.40;99.90
15343;DHT22;7771;48.478;8.936;2022-12-28T13:22:13;11.30;99.90
15343;DHT22;7771;48.478;8.936;2022-12-28T13:24:34;11.30;99.90
15343;DHT22;7771;48.478;8.936;2022-12-28T13:27:00;11.30;99.90
15343;DHT22;7771;48.478;8.936;2022-12-28T13:29:30;11.20;99.90
15343;DHT22;7771;48.478;8.936;2022-12-28T13:31:53;11.10;99.90
15343;DHT22;7771;48.478;8.936;2022-12-28T13:34:23;11.10;99.90
15343;DHT22;7771;48.478;8.936;2022-12-28T13:36:52;11.00;99.90
15343;DHT22;7771;48.478;8.936;2022-12-28T13:39:18;11.00;99.90
15343;DHT22;7771;48.478;8.936;2022-12-28T13:41:49;10.90;99.90
15343;DHT22;7771;48.478;8.936;2022-12-28T13:44:20;10.90;99.90
15343;DHT22;7771;48.478;8.936;2022-12-28T13:46:45;10.90;99.90
15343;DHT22;7771;48.478;8.936;2022-12-28T13:49:11;10.80;99.90
15343;DHT22;7771;48.478;8.936;2022-12-28T13:51:38;10.70;99.90
15343;DHT22;7771;48.478;8.936;2022-12-28T13:54:04;10.70;99.90
15343;DHT22;7771;48.478;8.936;2022-12-28T13:56:31;10.70;99.90
15343;DHT22;7771;48.478;8.936;2022-12-28T13:58:59;10.70;99.90
15343;DHT22;7771;48.478;8.936;2022-12-28T14:01:29;10.70;99.90
15343;DHT22;7771;48.478;8.936;2022-12-28T14:03:54;10.60;99.90
15343;DHT22;7771;48.478;8.936;2022-12-28T14:06:20;10.60;99.90
15343;DHT22;7771;48.478;8.936;2022-12-28T14:08:47;10.60;99.90
15343;DHT22;7771;48.478;8.936;2022-12-28T14:11:14;10.50;99.90
15343;DHT22;7771;48.478;8.936;2022-12-28T14:13:42;10.50;99.90
15343;DHT22;7771;48.478;8.936;2022-12-28T14:16:08;10.50;99.90
15343;DHT22;7771;48.478;8.936;2022-12-28T14:18:35;10.50;99.90
15343;DHT22;7771;48.478;8.936;2022-12-28T14:21:03;10.40;99.90
15343;DHT22;7771;48.478;8.936;2022-12-28T14:23:30;10.40;99.90
15343;DHT22;7771;48.478;8.936;2022-12-28T14:25:58;10.30;99.90
15343;DHT22;7771;48.478;8.936;2022-12-28T14:28:38;10.30;99.90
15343;DHT22;7771;48.478;8.936;2022-12-28T14:31:04;10.30;99.90
15343;DHT22;7771;48.478;8.936;2022-12-28T14:33:32;10.20;99.90
15343;DHT22;7771;48.478;8.936;2022-12-28T14:35:59;10.20;99.90
15343;DHT22;7771;48.478;8.936;2022-12-28T14:38:36;10.20;99.90
15343;DHT22;7771;48.478;8.936;2022-12-28T14:41:01;10.20;99.90
15343;DHT22;7771;48.478;8.936;2022-12-28T14:43:30;10.20;99.90
15343;DHT22;7771;48.478;8.936;2022-12-28T14:45:56;10.10;99.90
15343;DHT22;7771;48.478;8.936;2022-12-28T14:48:36;10.10;99.90
15343;DHT22;7771;48.478;8.936;2022-12-28T14:51:32;10.10;99.90
15343;DHT22;7771;48.478;8.936;2022-12-28T14:54:13;10.00;99.90
15343;DHT22;7771;48.478;8.936;2022-12-28T14:56:35;10.00;99.90
15343;DHT22;7771;48.478;8.936;2022-12-28T14:59:02;9.90;99.90
15343;DHT22;7771;48.478;8.936;2022-12-28T15:01:39;9.90;99.90
15343;DHT22;7771;48.478;8.936;2022-12-28T15:04:05;9.90;99.90
15343;DHT22;7771;48.478;8.936;2022-12-28T15:06:32;9.90;99.90
15343;DHT22;7771;48.478;8.936;2022-12-28T15:08:59;9.80;99.90
15343;DHT22;7771;48.478;8.936;2022-12-28T15:11:27;9.80;99.90
15343;DHT22;7771;48.478;8.936;2022-12-28T15:13:52;9.80;99.90
15343;DHT22;7771;48.478;8.936;2022-12-28T15:16:20;9.80;99.90
15343;DHT22;7771;48.478;8.936;2022-12-28T15:18:45;9.80;99.90
15343;DHT22;7771;48.478;8.936;2022-12-28T15:21:15;9.70;99.90
15343;DHT22;7771;48.478;8.936;2022-12-28T15:23:40;9.70;99.90
15343;DHT22;7771;48.478;8.936;2022-12-28T15:26:08;9.60;99.90
15343;DHT22;7771;48.478;8.936;2022-12-28T15:28:34;9.60;99.90
15343;DHT22;7771;48.478;8.936;2022-12-28T15:31:05;9.60;99.90
15343;DHT22;7771;48.478;8.936;2022-12-28T15:33:33;9.60;99.90
15343;DHT22;7771;48.478;8.936;2022-12-28T15:36:03;9.50;99.90
15343;DHT22;7771;48.478;8.936;2022-12-28T15:38:29;9.50;99.90
15343;DHT22;7771;48.478;8.936;2022-12-28T15:40:56;9.50;99.90
15343;DHT22;7771;48.478;8.936;2022-12-28T15:43:22;9.50;99.90
15343;DHT22;7771;48.478;8.936;2022-12-28T15:45:54;9.50;99.90
15343;DHT22;7771;48.478;8.936;2022-12-28T15:48:20;9.50;99.90
15343;DHT22;7771;48.478;8.936;2022-12-28T15:50:47;9.50;99.90
15343;DHT22;7771;48.478;8.936;2022-12-28T15:53:14;9.40;99.90
15343;DHT22;7771;48.478;8.936;2022-12-28T15:55:40;9.40;99.90
15343;DHT22;7771;48.478;8.936;2022-12-28T15:58:07;9.40;99.90
15343;DHT22;7771;48.478;8.936;2022-12-28T16:00:34;9.40;99.90
15343;DHT22;7771;48.478;8.936;2022-12-28T16:03:01;9.40;99.90
15343;DHT22;7771;48.478;8.936;2022-12-28T16:05:27;9.40;99.90
15343;DHT22;7771;48.478;8.936;2022-12-28T16:07:56;9.40;99.90
15343;DHT22;7771;48.478;8.936;2022-12-28T16:10:22;9.40;99.90
15343;DHT22;7771;48.478;8.936;2022-12-28T16:12:49;9.40;99.90
15343;DHT22;7771;48.478;8.936;2022-12-28T16:15:16;9.40;99.90
15343;DHT22;7771;48.478;8.936;2022-12-28T16:17:42;9.30;99.90
15343;DHT22;7771;48.478;8.936;2022-12-28T16:20:09;9.30;99.90
15343;DHT22;7771;48.478;8.936;2022-12-28T16:22:36;9.30;99.90
15343;DHT22;7771;48.478;8.936;2022-12-28T16:25:03;9.20;99.90
15343;DHT22;7771;48.478;8.936;2022-12-28T16:27:29;9.20;99.90